createdAt,value
2023-04-01T00:01:48.710Z,99531.59
2023-04-01T00:04:16.693Z,99531.53
2023-04-01T00:06:43.645Z,99533.19
2023-04-01T00:09:10.776Z,99535.81
2023-04-01T00:11:37.850Z,99539.34
2023-04-01T00:14:04.805Z,99542.97
2023-04-01T00:16:32.083Z,99537.06
2023-04-01T00:18:58.981Z,99552.78
2023-04-01T00:21:26.126Z,99544.25
2023-04-01T00:23:53.090Z,99553.88
2023-04-01T00:26:22.339Z,99547.06
2023-04-01T00:28:50.165Z,99556.75
2023-04-01T00:31:17.228Z,99550.06
2023-04-01T00:33:44.181Z,99556.22
2023-04-01T00:36:17.517Z,99552.84
2023-04-01T00:38:44.774Z,99552.03
2023-04-01T00:41:15.429Z,99557.31
2023-04-01T00:43:45.790Z,99554.00
2023-04-01T00:46:13.193Z,99561.81
2023-04-01T00:48:47.448Z,99563.59
2023-04-01T00:51:23.324Z,99572.31
2023-04-01T00:53:54.506Z,99569.75
2023-04-01T00:56:27.870Z,99566.41
2023-04-01T00:59:24.407Z,99572.53
2023-04-01T01:01:52.061Z,99575.19
2023-04-01T01:04:37.522Z,99570.84
2023-04-01T01:07:33.405Z,99571.72
2023-04-01T01:10:25.630Z,99567.38
2023-04-01T01:13:26.348Z,99561.34
2023-04-01T01:16:15.480Z,99570.13
2023-04-01T01:18:55.144Z,99565.91
2023-04-01T01:21:46.393Z,99578.97
2023-04-01T01:24:47.673Z,99569.53
2023-04-01T01:27:19.349Z,99573.94
2023-04-01T01:30:07.440Z,99584.47
2023-04-01T01:33:09.598Z,99572.50
2023-04-01T01:35:53.486Z,99577.81
2023-04-01T01:38:25.446Z,99577.84
2023-04-01T01:41:00.497Z,99576.16
2023-04-01T01:43:34.432Z,99585.69
2023-04-01T01:46:08.657Z,99581.38
2023-04-01T01:48:37.258Z,99586.59
2023-04-01T01:51:07.313Z,99592.66
2023-04-01T01:53:34.231Z,99593.47
2023-04-01T01:56:01.693Z,99595.22
2023-04-01T01:58:48.816Z,99596.97
2023-04-01T02:01:25.785Z,99598.66
2023-04-01T02:03:55.622Z,99595.25
2023-04-01T02:06:30.574Z,99597.88
2023-04-01T02:09:02.176Z,99597.03
2023-04-01T02:11:36.155Z,99598.78
2023-04-01T02:14:11.554Z,99600.50
2023-04-01T02:16:46.406Z,99597.06
2023-04-01T02:19:16.332Z,99607.50
2023-04-01T02:21:44.162Z,99604.88
2023-04-01T02:24:16.256Z,99605.75
2023-04-01T02:26:44.064Z,99600.59
2023-04-01T02:29:13.333Z,99616.09
2023-04-01T02:31:41.403Z,99616.94
2023-04-01T02:34:08.452Z,99615.25
2023-04-01T02:36:37.319Z,99628.22
2023-04-01T02:39:05.500Z,99618.72
2023-04-01T02:41:32.595Z,99617.03
2023-04-01T02:44:00.330Z,99627.44
2023-04-01T02:46:27.280Z,99632.59
2023-04-01T02:48:54.771Z,99631.75
2023-04-01T02:51:21.737Z,99637.78
2023-04-01T02:53:48.688Z,99624.84
2023-04-01T02:56:15.888Z,99642.97
2023-04-01T02:58:42.789Z,99644.72
2023-04-01T03:01:09.956Z,99646.47
2023-04-01T03:03:36.952Z,99660.34
2023-04-01T03:06:11.881Z,99649.13
2023-04-01T03:08:39.083Z,99660.34
2023-04-01T03:11:06.874Z,99650.00
2023-04-01T03:13:36.091Z,99660.38
2023-04-01T03:16:03.516Z,99656.03
2023-04-01T03:18:30.600Z,99665.53
2023-04-01T03:20:58.195Z,99670.75
2023-04-01T03:23:25.306Z,99669.00
2023-04-01T03:25:52.224Z,99670.75
2023-04-01T03:28:19.170Z,99669.88
2023-04-01T03:30:46.311Z,99669.03
2023-04-01T03:33:13.508Z,99665.56
2023-04-01T03:35:40.410Z,99669.03
2023-04-01T03:38:07.342Z,99670.75
2023-04-01T03:40:38.180Z,99669.03
2023-04-01T03:43:09.196Z,99669.88
2023-04-01T03:45:45.108Z,99675.91
2023-04-01T03:48:13.239Z,99675.91
2023-04-01T03:50:40.291Z,99690.59
2023-04-01T03:53:08.480Z,99692.34
2023-04-01T03:55:40.606Z,99690.59
2023-04-01T03:58:09.001Z,99688.00
2023-04-01T04:00:36.011Z,99689.72
2023-04-01T04:03:04.941Z,99692.34
2023-04-01T04:05:35.112Z,99692.34
2023-04-01T04:08:03.122Z,99695.78
2023-04-01T04:10:30.251Z,99695.78
2023-04-01T04:12:57.671Z,99707.00
2023-04-01T04:15:26.384Z,99694.91
2023-04-01T04:17:53.390Z,99709.59
2023-04-01T04:20:20.576Z,99719.97
2023-04-01T04:22:47.526Z,99713.03
2023-04-01T04:25:14.519Z,99722.56
2023-04-01T04:27:41.633Z,99722.53
2023-04-01T04:30:13.034Z,99719.97
2023-04-01T04:32:41.644Z,99728.59
2023-04-01T04:35:09.206Z,99737.22
2023-04-01T04:37:36.198Z,99742.38
2023-04-01T04:40:03.180Z,99736.34
2023-04-01T04:42:31.465Z,99741.53
2023-04-01T04:45:04.778Z,99744.09
2023-04-01T04:47:32.334Z,99745.81
2023-04-01T04:49:59.304Z,99747.56
2023-04-01T04:52:26.343Z,99744.97
2023-04-01T04:54:53.452Z,99751.00
2023-04-01T04:57:20.455Z,99746.69
2023-04-01T04:59:54.159Z,99754.44
2023-04-01T05:02:47.510Z,99742.34
2023-04-01T05:05:14.518Z,99751.84
2023-04-01T05:07:41.506Z,99757.03
2023-04-01T05:10:08.980Z,99759.59
2023-04-01T05:12:38.465Z,99763.91
2023-04-01T05:15:08.167Z,99765.66
2023-04-01T05:17:35.324Z,99766.47
2023-04-01T05:20:04.296Z,99755.25
2023-04-01T05:22:31.336Z,99762.19
2023-04-01T05:24:58.237Z,99767.31
2023-04-01T05:27:25.771Z,99772.53
2023-04-01T05:29:52.773Z,99777.69
2023-04-01T05:32:41.568Z,99776.81
2023-04-01T05:35:08.831Z,99781.19
2023-04-01T05:37:36.259Z,99780.31
2023-04-01T05:40:05.790Z,99788.09
2023-04-01T05:42:32.751Z,99771.66
2023-04-01T05:44:59.662Z,99786.34
2023-04-01T05:47:44.963Z,99795.00
2023-04-01T05:50:12.548Z,99790.69
2023-04-01T05:52:39.833Z,99802.78
2023-04-01T05:55:07.546Z,99806.25
2023-04-01T05:57:34.549Z,99804.53
2023-04-01T06:00:01.673Z,99802.78
2023-04-01T06:02:40.130Z,99798.47
2023-04-01T06:05:30.499Z,99800.22
2023-04-01T06:08:09.747Z,99803.66
2023-04-01T06:11:06.027Z,99818.34
2023-04-01T06:14:00.319Z,99814.06
2023-04-01T06:17:08.767Z,99820.97
2023-04-01T06:20:01.825Z,99826.16
2023-04-01T06:22:53.982Z,99816.66
2023-04-01T06:25:54.289Z,99826.16
2023-04-01T06:28:50.915Z,99835.66
2023-04-01T06:32:06.030Z,99831.34
2023-04-01T06:35:12.237Z,99834.78
2023-04-01T06:38:12.060Z,99845.13
2023-04-01T06:41:26.638Z,99840.81
2023-04-01T06:44:45.983Z,99852.91
2023-04-01T06:47:56.013Z,99857.25
2023-04-01T06:51:23.073Z,99854.66
2023-04-01T06:54:31.331Z,99863.28
2023-04-01T06:57:31.177Z,99877.94
2023-04-01T07:00:02.378Z,99873.63
2023-04-01T07:02:56.590Z,99869.31
2023-04-01T07:05:24.981Z,99871.06
2023-04-01T07:07:56.813Z,99875.41
2023-04-01T07:10:45.509Z,99879.69
2023-04-01T07:13:50.529Z,99890.91
2023-04-01T07:16:39.277Z,99890.91
2023-04-01T07:19:30.460Z,99891.78
2023-04-01T07:22:28.282Z,99895.25
2023-04-01T07:25:18.353Z,99892.63
2023-04-01T07:28:20.203Z,99909.03
2023-04-01T07:31:31.852Z,99900.41
2023-04-01T07:34:24.241Z,99907.28
2023-04-01T07:37:09.363Z,99908.16
2023-04-01T07:40:07.449Z,99915.91
2023-04-01T07:43:25.178Z,99919.34
2023-04-01T07:46:24.868Z,99921.94
2023-04-01T07:49:06.189Z,99922.78
2023-04-01T07:52:04.501Z,99924.50
2023-04-01T07:54:59.093Z,99933.13
2023-04-01T07:57:51.115Z,99931.38
2023-04-01T08:00:28.462Z,99942.56
2023-04-01T08:03:26.630Z,99948.59
2023-04-01T08:06:21.294Z,99952.91
2023-04-01T08:09:14.243Z,99952.94
2023-04-01T08:12:21.288Z,99957.25
2023-04-01T08:15:39.533Z,99964.16
2023-04-01T08:18:58.698Z,99965.03
2023-04-01T08:21:33.780Z,99966.72
2023-04-01T08:24:21.433Z,99953.69
2023-04-01T08:26:55.261Z,99971.91
2023-04-01T08:29:41.275Z,99968.38
2023-04-01T08:32:17.519Z,99987.41
2023-04-01T08:34:53.901Z,99975.25
2023-04-01T08:37:36.481Z,99996.88
2023-04-01T08:40:26.980Z,99989.09
2023-04-01T08:43:42.465Z,100000.28
2023-04-01T08:46:34.067Z,100003.72
2023-04-01T08:49:46.336Z,100008.88
2023-04-01T08:52:54.760Z,100003.69
2023-04-01T08:55:57.189Z,100016.66
2023-04-01T08:58:52.618Z,100013.22
2023-04-01T09:01:53.845Z,100014.97
2023-04-01T09:05:23.229Z,100026.19
2023-04-01T09:08:22.689Z,100028.72
2023-04-01T09:11:07.355Z,100022.69
2023-04-01T09:15:08.071Z,100028.69
2023-04-01T09:18:22.168Z,100045.91
2023-04-01T09:21:32.407Z,100041.56
2023-04-01T09:24:32.196Z,100057.97
2023-04-01T09:27:29.461Z,100047.53
2023-04-01T09:30:22.003Z,100069.06
2023-04-01T09:33:28.862Z,100059.47
2023-04-01T09:36:46.031Z,100066.41
2023-04-01T09:39:43.667Z,100063.81
2023-04-01T09:42:53.398Z,100067.28
2023-04-01T09:46:08.165Z,100081.94
2023-04-01T09:48:52.978Z,100088.88
2023-04-01T09:51:55.707Z,100077.59
2023-04-01T09:54:59.398Z,100093.22
2023-04-01T09:58:06.325Z,100100.16
2023-04-01T10:01:35.336Z,100107.94
2023-04-01T10:04:40.708Z,100117.41
2023-04-01T10:07:49.300Z,100102.81
2023-04-01T10:11:13.359Z,100114.09
2023-04-01T10:14:22.131Z,100121.84
2023-04-01T10:17:39.324Z,100122.72
2023-04-01T10:20:28.848Z,100124.47
2023-04-01T10:23:53.012Z,100117.59
2023-04-01T10:27:02.715Z,100133.06
2023-04-01T10:30:23.544Z,100131.22
2023-04-01T10:33:26.697Z,100142.44
2023-04-01T10:36:20.410Z,100140.69
2023-04-01T10:39:27.594Z,100134.63
2023-04-01T10:42:25.267Z,100138.09
2023-04-01T10:45:58.816Z,100144.13
2023-04-01T10:49:01.893Z,100131.13
2023-04-01T10:51:55.166Z,100140.78
2023-04-01T10:55:11.870Z,100138.31
2023-04-01T10:59:11.895Z,100142.59
2023-04-01T11:02:51.778Z,100152.13
2023-04-01T11:05:57.521Z,100144.38
2023-04-01T11:08:57.232Z,100164.22
2023-04-01T11:12:03.443Z,100173.66
2023-04-01T11:15:16.818Z,100171.03
2023-04-01T11:18:03.623Z,100187.28
2023-04-01T11:20:51.313Z,100160.53
2023-04-01T11:24:04.978Z,100179.44
2023-04-01T11:27:14.209Z,100185.50
2023-04-01T11:30:17.482Z,100198.47
2023-04-01T11:33:08.701Z,100194.13
2023-04-01T11:35:56.872Z,100206.19
2023-04-01T11:38:45.592Z,100195.81
2023-04-01T11:41:52.021Z,100212.25
2023-04-01T11:44:46.696Z,100207.03
2023-04-01T11:47:58.954Z,100193.19
2023-04-01T11:51:00.042Z,100222.59
2023-04-01T11:54:18.626Z,100222.56
2023-04-01T11:57:06.824Z,100219.94
2023-04-01T12:00:01.751Z,100222.56
2023-04-01T12:03:03.254Z,100240.69
2023-04-01T12:05:40.664Z,100232.97
2023-04-01T12:08:38.137Z,100225.97
2023-04-01T12:11:16.711Z,100244.19
2023-04-01T12:13:56.995Z,100250.22
2023-04-01T12:16:48.155Z,100247.63
2023-04-01T12:19:46.037Z,100250.19
2023-04-01T12:22:50.903Z,100251.03
2023-04-01T12:26:23.245Z,100254.44
2023-04-01T12:29:20.785Z,100255.28
2023-04-01T12:32:01.857Z,100263.16
2023-04-01T12:34:50.913Z,100278.75
2023-04-01T12:37:30.621Z,100266.66
2023-04-01T12:40:38.805Z,100276.09
2023-04-01T12:43:44.416Z,100275.25
2023-04-01T12:46:51.665Z,100297.63
2023-04-01T12:49:51.894Z,100316.56
2023-04-01T12:53:10.487Z,100289.88
2023-04-01T12:55:45.762Z,100283.72
2023-04-01T12:58:35.218Z,100300.13
2023-04-01T13:01:35.540Z,100303.53
2023-04-01T13:04:31.531Z,100313.59
2023-04-01T13:07:34.114Z,100314.47
2023-04-01T13:10:44.127Z,100325.66
2023-04-01T13:14:21.618Z,100331.44
2023-04-01T13:17:30.845Z,100331.34
2023-04-01T13:20:54.496Z,100345.16
2023-04-01T13:24:08.732Z,100348.63
2023-04-01T13:26:56.018Z,100348.72
2023-04-01T13:30:03.908Z,100359.97
2023-04-01T13:32:57.423Z,100353.09
2023-04-01T13:36:04.231Z,100355.56
2023-04-01T13:38:54.788Z,100352.16
2023-04-01T13:41:44.724Z,100393.66
2023-04-01T13:44:25.739Z,100363.53
2023-04-01T13:47:21.272Z,100368.78
2023-04-01T13:50:24.915Z,100373.09
2023-04-01T13:53:52.493Z,100369.63
2023-04-01T13:56:49.448Z,100395.50
2023-04-01T13:59:39.459Z,100368.66
2023-04-01T14:02:42.222Z,100381.56
2023-04-01T14:05:29.402Z,100377.84
2023-04-01T14:08:37.375Z,100391.63
2023-04-01T14:11:42.592Z,100388.19
2023-04-01T14:14:46.998Z,100392.50
2023-04-01T14:17:49.110Z,100396.75
2023-04-01T14:20:41.287Z,100400.34
2023-04-01T14:23:32.674Z,100406.38
2023-04-01T14:26:19.078Z,100404.56
2023-04-01T14:29:09.050Z,100414.13
2023-04-01T14:32:03.514Z,100413.25
2023-04-01T14:35:11.621Z,100427.06
2023-04-01T14:38:15.644Z,100438.13
2023-04-01T14:41:22.159Z,100432.91
2023-04-01T14:44:24.036Z,100433.00
2023-04-01T14:47:30.019Z,100431.28
2023-04-01T14:50:25.505Z,100435.50
2023-04-01T14:53:27.882Z,100439.91
2023-04-01T14:56:00.938Z,100447.75
2023-04-01T14:58:58.568Z,100444.31
2023-04-01T15:01:53.602Z,100456.44
2023-04-01T15:04:38.089Z,100463.34
2023-04-01T15:07:52.066Z,100460.81
2023-04-01T15:10:43.532Z,100458.22
2023-04-01T15:13:31.292Z,100468.56
2023-04-01T15:16:16.463Z,100462.41
2023-04-01T15:19:18.676Z,100472.69
2023-04-01T15:21:56.676Z,100476.81
2023-04-01T15:25:31.214Z,100473.31
2023-04-01T15:28:32.019Z,100489.94
2023-04-01T15:31:31.022Z,100498.38
2023-04-01T15:34:32.630Z,100502.75
2023-04-01T15:37:37.177Z,100501.09
2023-04-01T15:41:02.707Z,100522.72
2023-04-01T15:43:49.685Z,100537.28
2023-04-01T15:46:37.606Z,100528.66
2023-04-01T15:49:42.978Z,100532.06
2023-04-01T15:52:24.070Z,100524.97
2023-04-01T15:55:07.510Z,100549.09
2023-04-01T15:57:48.328Z,100545.56
2023-04-01T16:00:31.915Z,100552.53
2023-04-01T16:03:39.128Z,100561.91
2023-04-01T16:07:03.253Z,100571.31
2023-04-01T16:09:39.064Z,100559.19
2023-04-01T16:12:20.913Z,100569.53
2023-04-01T16:15:20.511Z,100581.56
2023-04-01T16:18:02.827Z,100579.81
2023-04-01T16:20:59.038Z,100593.81
2023-04-01T16:24:21.083Z,100584.19
2023-04-01T16:27:19.982Z,100578.06
2023-04-01T16:29:54.447Z,100606.50
2023-04-01T16:33:10.900Z,100601.41
2023-04-01T16:35:48.787Z,100611.75
2023-04-01T16:38:34.088Z,100614.47
2023-04-01T16:41:04.081Z,100625.69
2023-04-01T16:43:59.007Z,100615.00
2023-04-01T16:46:37.633Z,100630.47
2023-04-01T16:49:11.641Z,100627.03
2023-04-01T16:52:11.885Z,100637.31
2023-04-01T16:55:04.776Z,100640.69
2023-04-01T16:57:57.211Z,100643.97
2023-04-01T17:00:39.328Z,100652.34
2023-04-01T17:03:09.243Z,100652.47
2023-04-01T17:06:10.685Z,100655.69
2023-04-01T17:09:09.045Z,100660.81
2023-04-01T17:12:07.988Z,100669.28
2023-04-01T17:15:03.243Z,100671.00
2023-04-01T17:17:46.949Z,100683.25
2023-04-01T17:20:43.265Z,100703.72
2023-04-01T17:23:32.662Z,100702.66
2023-04-01T17:26:38.586Z,100705.06
2023-04-01T17:29:34.941Z,100713.81
2023-04-01T17:32:21.265Z,100719.84
2023-04-01T17:35:08.715Z,100717.19
2023-04-01T17:38:21.403Z,100726.44
2023-04-01T17:41:26.103Z,100741.69
2023-04-01T17:44:08.194Z,100751.81
2023-04-01T17:46:45.395Z,100755.63
2023-04-01T17:49:35.489Z,100741.19
2023-04-01T17:52:25.829Z,100761.72
2023-04-01T17:55:14.033Z,100762.66
2023-04-01T17:58:17.893Z,100773.16
2023-04-01T18:01:07.394Z,100783.44
2023-04-01T18:04:14.117Z,100787.47
2023-04-01T18:07:01.073Z,100791.97
2023-04-01T18:09:48.207Z,100809.31
2023-04-01T18:12:31.984Z,100798.78
2023-04-01T18:15:47.187Z,100806.88
2023-04-01T18:18:48.338Z,100791.31
2023-04-01T18:21:56.718Z,100813.09
2023-04-01T18:24:41.375Z,100818.97
2023-04-01T18:27:25.464Z,100821.63
2023-04-01T18:30:14.371Z,100831.13
2023-04-01T18:33:08.595Z,100833.69
2023-04-01T18:36:11.679Z,100838.56
2023-04-01T18:38:47.312Z,100837.63
2023-04-01T18:41:17.096Z,100838.91
2023-04-01T18:44:16.819Z,100846.72
2023-04-01T18:47:30.415Z,100846.81
2023-04-01T18:50:29.620Z,100859.06
2023-04-01T18:53:32.619Z,100870.41
2023-04-01T18:56:04.816Z,100869.63
2023-04-01T18:58:57.039Z,100867.81
2023-04-01T19:01:47.475Z,100869.63
2023-04-01T19:04:34.990Z,100871.38
2023-04-01T19:07:37.305Z,100887.59
2023-04-01T19:10:27.153Z,100876.41
2023-04-01T19:13:19.228Z,100891.81
2023-04-01T19:16:17.956Z,100889.25
2023-04-01T19:19:09.431Z,100898.84
2023-04-01T19:21:57.831Z,100911.78
2023-04-01T19:25:23.902Z,100918.72
2023-04-01T19:28:17.708Z,100900.28
2023-04-01T19:31:02.623Z,100919.84
2023-04-01T19:33:37.948Z,100919.97
2023-04-01T19:36:12.604Z,100920.88
2023-04-01T19:39:20.938Z,100916.72
2023-04-01T19:42:42.613Z,100923.03
2023-04-01T19:45:43.283Z,100945.38
2023-04-01T19:48:21.743Z,100939.31
2023-04-01T19:50:57.381Z,100940.25
2023-04-01T19:53:55.589Z,100955.72
2023-04-01T19:56:24.740Z,100954.94
2023-04-01T19:59:18.861Z,100952.38
2023-04-01T20:02:12.124Z,100958.28
2023-04-01T20:04:48.675Z,100963.34
2023-04-01T20:07:33.009Z,100971.69
2023-04-01T20:10:18.880Z,100993.81
2023-04-01T20:13:42.769Z,100968.81
2023-04-01T20:16:11.833Z,100993.81
2023-04-01T20:19:00.128Z,100987.06
2023-04-01T20:21:47.151Z,100986.31
2023-04-01T20:24:33.138Z,101006.19
2023-04-01T20:27:18.494Z,101003.59
2023-04-01T20:30:05.322Z,101030.97
2023-04-01T20:32:50.691Z,101009.41
2023-04-01T20:35:36.270Z,101010.88
2023-04-01T20:38:52.516Z,101040.50
2023-04-01T20:41:28.416Z,101019.06
2023-04-01T20:44:10.206Z,101028.78
2023-04-01T20:47:17.967Z,101028.94
2023-04-01T20:50:22.741Z,101041.94
2023-04-01T20:53:13.227Z,101038.63
2023-04-01T20:56:14.662Z,101032.78
2023-04-01T20:59:12.705Z,101048.25
2023-04-01T21:02:09.632Z,101046.44
2023-04-01T21:05:28.164Z,101051.59
2023-04-01T21:08:30.087Z,101058.19
2023-04-01T21:11:19.689Z,101064.28
2023-04-01T21:14:26.239Z,101061.66
2023-04-01T21:17:35.464Z,101066.16
2023-04-01T21:20:52.974Z,101058.97
2023-04-01T21:23:40.392Z,101073.06
2023-04-01T21:26:44.436Z,101070.44
2023-04-01T21:29:34.733Z,101083.38
2023-04-01T21:32:21.643Z,101075.72
2023-04-01T21:35:17.685Z,101095.66
2023-04-01T21:38:12.016Z,101093.06
2023-04-01T21:41:10.939Z,101098.94
2023-04-01T21:44:07.606Z,101106.75
2023-04-01T21:47:26.570Z,101104.84
2023-04-01T21:50:24.089Z,101110.19
2023-04-01T21:53:19.626Z,101107.63
2023-04-01T21:56:14.783Z,101124.03
2023-04-01T21:59:11.287Z,101128.25
2023-04-01T22:02:06.953Z,101128.25
2023-04-01T22:04:59.673Z,101133.41
2023-04-01T22:07:40.447Z,101126.25
2023-04-01T22:10:47.992Z,101137.81
2023-04-01T22:13:29.378Z,101133.78
2023-04-01T22:17:04.478Z,101135.75
2023-04-01T22:20:10.272Z,101148.88
2023-04-01T22:23:07.939Z,101147.09
2023-04-01T22:25:58.742Z,101144.63
2023-04-01T22:29:06.649Z,101152.34
2023-04-01T22:31:52.328Z,101163.38
2023-04-01T22:34:43.648Z,101162.69
2023-04-01T22:37:46.311Z,101165.41
2023-04-01T22:40:38.033Z,101161.16
2023-04-01T22:43:13.606Z,101173.00
2023-04-01T22:45:58.132Z,101182.53
2023-04-01T22:48:39.388Z,101172.94
2023-04-01T22:51:19.342Z,101184.88
2023-04-01T22:54:23.106Z,101181.59
2023-04-01T22:57:00.713Z,101179.63
2023-04-01T23:00:09.403Z,101191.50
2023-04-01T23:03:22.829Z,101192.38
2023-04-01T23:05:58.789Z,101196.94
2023-04-01T23:09:02.212Z,101217.72
2023-04-01T23:12:04.989Z,101199.91
2023-04-01T23:14:54.830Z,101226.81
2023-04-01T23:17:54.616Z,101211.97
2023-04-01T23:20:29.698Z,101214.44
2023-04-01T23:23:36.995Z,101219.69
2023-04-01T23:26:41.664Z,101214.56
2023-04-01T23:29:16.295Z,101235.97
2023-04-01T23:31:47.787Z,101220.56
2023-04-01T23:34:14.625Z,101237.06
2023-04-01T23:36:55.072Z,101225.72
2023-04-01T23:39:55.748Z,101245.84
2023-04-01T23:42:41.428Z,101224.16
2023-04-01T23:45:18.280Z,101246.63
2023-04-01T23:47:47.966Z,101255.41
2023-04-01T23:50:25.350Z,101252.91
2023-04-01T23:53:19.731Z,101254.72
2023-04-01T23:55:47.720Z,101256.53
2023-04-01T23:58:44.101Z,101257.13
